Rubicon, Wisconsin
Current Conditions -  °F | °C
As of 10:15 AM on Monday 22 Dec 2014 (Local Time) from KUNU Reporting Station
Haze Haze  
Wind Chill: 25°   Ceiling: 3100
Heat Index: 32°   Visibility: 5mi
Dew Point: 30°   Wind: 8mph
Humidity: 92%   Direction: 110°ESE
Pressure: 29.86"   Gusts: NA
Location:  43.34°N, 88.46°W
Report Text: KUNU 221615Z AUTO 11007KT 5SM BR BKN031 OVC070 00/M01 A2986 RMK AO2 T00021009
Loading
Personal Weather Stations






























Interactive Weather Map New forecast layout! Learn more

10-Day Weather Forecast

Advertisements
Track Severe Weather on mobile